createdAt,value
2022-10-06T00:01:38.071Z,21.80
2022-10-06T00:04:08.116Z,21.73
2022-10-06T00:06:38.504Z,21.63
2022-10-06T00:09:08.805Z,21.65
2022-10-06T00:11:38.886Z,21.57
2022-10-06T00:14:08.773Z,21.54
2022-10-06T00:16:38.735Z,21.49
2022-10-06T00:19:09.008Z,21.43
2022-10-06T00:21:38.881Z,21.43
2022-10-06T00:24:09.098Z,21.36
2022-10-06T00:26:39.156Z,21.39
2022-10-06T00:29:09.487Z,21.26
2022-10-06T00:31:41.277Z,21.00
2022-10-06T00:34:11.848Z,21.02
2022-10-06T00:36:42.209Z,21.00
2022-10-06T00:39:12.140Z,21.03
2022-10-06T00:41:42.141Z,21.06
2022-10-06T00:44:12.129Z,21.12
2022-10-06T00:46:47.289Z,21.03
2022-10-06T00:49:30.414Z,20.86
2022-10-06T00:52:07.968Z,20.81
2022-10-06T00:54:39.555Z,20.69
2022-10-06T00:57:10.095Z,20.74
2022-10-06T00:59:42.112Z,20.69
2022-10-06T01:02:21.761Z,20.69
2022-10-06T01:05:17.202Z,20.67
2022-10-06T01:07:47.801Z,20.65
2022-10-06T01:10:18.366Z,20.55
2022-10-06T01:12:49.439Z,20.38
2022-10-06T01:15:21.209Z,20.31
2022-10-06T01:18:06.003Z,20.34
2022-10-06T01:20:39.651Z,20.33
2022-10-06T01:23:13.803Z,20.35
2022-10-06T01:25:44.916Z,20.48
2022-10-06T01:28:16.277Z,20.45
2022-10-06T01:30:55.700Z,20.30
2022-10-06T01:33:27.278Z,20.26
2022-10-06T01:35:58.189Z,20.17
2022-10-06T01:38:29.404Z,20.21
2022-10-06T01:41:04.348Z,20.21
2022-10-06T01:43:37.345Z,20.07
2022-10-06T01:46:08.865Z,20.00
2022-10-06T01:48:38.911Z,20.05
2022-10-06T01:51:10.484Z,20.10
2022-10-06T01:53:40.898Z,20.09
2022-10-06T01:56:12.126Z,20.05
2022-10-06T01:58:43.257Z,20.09
2022-10-06T02:01:14.389Z,20.17
2022-10-06T02:03:44.929Z,19.98
2022-10-06T02:06:16.017Z,19.85
2022-10-06T02:08:47.377Z,19.77
2022-10-06T02:11:18.177Z,19.85
2022-10-06T02:13:50.242Z,19.77
2022-10-06T02:16:20.930Z,19.82
2022-10-06T02:18:51.071Z,19.61
2022-10-06T02:21:24.489Z,19.45
2022-10-06T02:23:54.539Z,19.28
2022-10-06T02:26:24.668Z,19.19
2022-10-06T02:28:54.612Z,19.25
2022-10-06T02:31:27.112Z,19.38
2022-10-06T02:34:00.081Z,19.46
2022-10-06T02:36:30.710Z,19.54
2022-10-06T02:39:00.725Z,19.48
2022-10-06T02:41:31.624Z,19.45
2022-10-06T02:44:01.705Z,19.34
2022-10-06T02:46:33.765Z,19.32
2022-10-06T02:49:04.917Z,19.41
2022-10-06T02:51:35.469Z,19.39
2022-10-06T02:54:05.756Z,19.34
2022-10-06T02:56:39.079Z,19.36
2022-10-06T02:59:09.765Z,19.41
2022-10-06T03:01:43.613Z,19.36
2022-10-06T03:04:18.493Z,19.34
2022-10-06T03:06:50.270Z,19.44
2022-10-06T03:09:24.116Z,19.36
2022-10-06T03:11:55.803Z,19.34
2022-10-06T03:14:46.354Z,19.39
2022-10-06T03:17:16.970Z,19.34
2022-10-06T03:19:52.981Z,19.39
2022-10-06T03:22:23.801Z,19.39
2022-10-06T03:24:57.629Z,19.38
2022-10-06T03:27:28.393Z,19.34
2022-10-06T03:30:04.655Z,19.36
2022-10-06T03:32:37.135Z,19.35
2022-10-06T03:35:09.158Z,19.36
2022-10-06T03:37:39.601Z,19.58
2022-10-06T03:40:10.202Z,19.58
2022-10-06T03:42:40.102Z,19.54
2022-10-06T03:45:10.591Z,19.42
2022-10-06T03:47:40.842Z,19.46
2022-10-06T03:50:11.619Z,19.61
2022-10-06T03:52:41.476Z,19.62
2022-10-06T03:55:12.723Z,19.65
2022-10-06T03:57:43.585Z,19.55
2022-10-06T04:00:14.703Z,19.52
2022-10-06T04:02:45.971Z,19.58
2022-10-06T04:05:16.386Z,19.69
2022-10-06T04:07:46.486Z,19.72
2022-10-06T04:10:16.972Z,19.75
2022-10-06T04:12:47.619Z,19.82
2022-10-06T04:15:17.567Z,20.00
2022-10-06T04:17:47.549Z,20.00
2022-10-06T04:20:17.551Z,19.94
2022-10-06T04:22:47.851Z,19.70
2022-10-06T04:25:17.891Z,19.61
2022-10-06T04:27:48.161Z,19.44
2022-10-06T04:30:18.644Z,19.25
2022-10-06T04:32:48.958Z,19.25
2022-10-06T04:35:19.194Z,19.18
2022-10-06T04:37:49.481Z,19.12
2022-10-06T04:40:19.894Z,19.06
2022-10-06T04:42:51.765Z,18.98
2022-10-06T04:45:21.965Z,18.80
2022-10-06T04:47:51.829Z,18.71
2022-10-06T04:50:22.113Z,18.64
2022-10-06T04:53:11.140Z,18.60
2022-10-06T04:55:41.183Z,18.61
2022-10-06T04:58:11.392Z,18.67
2022-10-06T05:00:42.259Z,18.66
2022-10-06T05:03:12.913Z,18.56
2022-10-06T05:05:43.475Z,18.45
2022-10-06T05:08:13.389Z,18.43
2022-10-06T05:10:43.991Z,18.35
2022-10-06T05:13:15.762Z,18.35
2022-10-06T05:15:45.785Z,18.28
2022-10-06T05:18:15.605Z,18.24
2022-10-06T05:20:46.922Z,18.28
2022-10-06T05:23:19.990Z,18.39
2022-10-06T05:25:54.342Z,18.38
2022-10-06T05:28:27.978Z,18.42
2022-10-06T05:31:04.754Z,18.40
2022-10-06T05:33:37.316Z,18.40
2022-10-06T05:36:12.948Z,18.40
2022-10-06T05:38:43.868Z,18.33
2022-10-06T05:41:16.393Z,18.29
2022-10-06T05:43:47.485Z,18.25
2022-10-06T05:46:21.613Z,18.24
2022-10-06T05:48:56.771Z,18.25
2022-10-06T05:51:32.070Z,18.26
2022-10-06T05:54:05.676Z,18.25
2022-10-06T05:56:39.512Z,18.26
2022-10-06T05:59:10.588Z,18.28
2022-10-06T06:01:44.946Z,18.19
2022-10-06T06:04:22.504Z,18.12
2022-10-06T06:06:55.764Z,18.06
2022-10-06T06:09:30.334Z,18.05
2022-10-06T06:12:02.377Z,18.04
2022-10-06T06:15:01.972Z,18.06
2022-10-06T06:17:41.133Z,18.01
2022-10-06T06:20:12.357Z,17.98
2022-10-06T06:22:42.632Z,18.02
2022-10-06T06:25:14.151Z,18.06
2022-10-06T06:27:47.210Z,18.08
2022-10-06T06:30:18.980Z,18.02
2022-10-06T06:32:49.283Z,18.06
2022-10-06T06:35:19.477Z,18.06
2022-10-06T06:37:50.169Z,18.08
2022-10-06T06:40:20.760Z,18.09
2022-10-06T06:42:53.790Z,18.16
2022-10-06T06:45:24.237Z,18.10
2022-10-06T06:48:07.091Z,18.09
2022-10-06T06:50:38.206Z,18.10
2022-10-06T06:53:09.942Z,18.09
2022-10-06T06:55:52.011Z,18.18
2022-10-06T06:58:26.002Z,18.22
2022-10-06T07:01:10.118Z,18.25
2022-10-06T07:03:58.540Z,18.26
2022-10-06T07:06:34.280Z,18.26
2022-10-06T07:09:07.013Z,18.26
2022-10-06T07:11:41.290Z,18.36
2022-10-06T07:14:15.475Z,18.39
2022-10-06T07:17:06.405Z,18.40
2022-10-06T07:19:56.404Z,18.43
2022-10-06T07:22:48.186Z,18.42
2022-10-06T07:25:27.439Z,18.33
2022-10-06T07:28:00.567Z,18.32
2022-10-06T07:30:40.453Z,18.38
2022-10-06T07:33:17.050Z,18.42
2022-10-06T07:35:47.841Z,18.47
2022-10-06T07:38:25.583Z,18.46
2022-10-06T07:43:55.006Z,18.38
2022-10-06T07:46:26.534Z,18.25
2022-10-06T07:49:01.889Z,18.22
2022-10-06T07:51:33.353Z,18.26
2022-10-06T07:54:05.174Z,18.28
2022-10-06T07:56:55.565Z,18.24
2022-10-06T07:59:25.770Z,18.18
2022-10-06T08:01:56.275Z,18.15
2022-10-06T08:04:26.675Z,18.09
2022-10-06T08:06:59.784Z,18.09
2022-10-06T08:09:31.856Z,18.13
2022-10-06T08:12:22.047Z,18.18
2022-10-06T08:14:52.503Z,18.22
2022-10-06T08:17:22.493Z,18.22
2022-10-06T08:19:52.365Z,18.19
2022-10-06T08:22:23.457Z,18.24
2022-10-06T08:25:05.704Z,18.22
2022-10-06T08:27:38.144Z,18.25
2022-10-06T08:30:09.301Z,18.26
2022-10-06T08:32:40.202Z,18.26
2022-10-06T08:35:11.369Z,18.24
2022-10-06T08:37:41.810Z,18.25
2022-10-06T08:40:16.041Z,18.24
2022-10-06T08:42:52.557Z,18.25
2022-10-06T08:45:46.329Z,18.30
2022-10-06T08:48:25.302Z,18.38
2022-10-06T08:51:02.685Z,18.42
2022-10-06T08:54:18.290Z,18.38
2022-10-06T08:57:07.678Z,18.28
2022-10-06T08:59:38.676Z,18.24
2022-10-06T09:02:30.330Z,18.24
2022-10-06T09:05:04.236Z,18.26
2022-10-06T09:07:54.487Z,18.30
2022-10-06T09:10:34.421Z,18.36
2022-10-06T09:13:12.809Z,18.33
2022-10-06T09:16:08.312Z,18.38
2022-10-06T09:21:45.910Z,18.40
2022-10-06T09:24:20.093Z,18.38
2022-10-06T09:26:52.384Z,18.38
2022-10-06T09:29:22.610Z,18.39
2022-10-06T09:31:52.892Z,18.43
2022-10-06T09:34:29.643Z,18.53
2022-10-06T09:37:06.130Z,18.53
2022-10-06T09:39:38.376Z,18.52
2022-10-06T09:42:17.316Z,18.50
2022-10-06T09:45:01.033Z,18.57
2022-10-06T09:47:33.581Z,18.59
2022-10-06T09:50:24.735Z,18.53
2022-10-06T09:53:04.564Z,18.55
2022-10-06T09:55:42.698Z,18.55
2022-10-06T09:58:24.422Z,18.57
2022-10-06T10:00:54.968Z,18.55
2022-10-06T10:03:28.470Z,18.50
2022-10-06T10:06:00.952Z,18.52
2022-10-06T10:08:31.908Z,18.55
2022-10-06T10:11:28.671Z,18.50
2022-10-06T10:14:00.219Z,18.46
2022-10-06T10:16:35.586Z,18.52
2022-10-06T10:19:07.481Z,18.47
2022-10-06T10:21:38.338Z,18.43
2022-10-06T10:24:20.223Z,18.43
2022-10-06T10:27:16.056Z,18.49
2022-10-06T10:30:02.852Z,18.55
2022-10-06T10:32:47.788Z,18.53
2022-10-06T10:35:27.905Z,18.49
2022-10-06T10:38:14.747Z,18.50
2022-10-06T10:40:55.566Z,18.56
2022-10-06T10:43:46.482Z,18.56
2022-10-06T10:46:39.869Z,18.57
2022-10-06T10:49:20.957Z,18.57
2022-10-06T10:51:54.262Z,18.57
2022-10-06T10:54:43.783Z,18.60
2022-10-06T10:57:21.218Z,18.60
2022-10-06T11:00:02.976Z,18.63
2022-10-06T11:02:34.412Z,18.66
2022-10-06T11:05:17.050Z,18.60
2022-10-06T11:07:50.903Z,18.57
2022-10-06T11:10:24.045Z,18.63
2022-10-06T11:13:24.356Z,18.66
2022-10-06T11:16:25.080Z,18.64
2022-10-06T11:19:01.354Z,18.61
2022-10-06T11:21:44.270Z,18.64
2022-10-06T11:24:20.794Z,18.64
2022-10-06T11:27:27.884Z,18.66
2022-10-06T11:30:04.590Z,18.60
2022-10-06T11:32:53.519Z,18.56
2022-10-06T11:35:28.374Z,18.57
2022-10-06T11:38:23.059Z,18.57
2022-10-06T11:41:07.368Z,18.59
2022-10-06T11:44:29.285Z,18.60
2022-10-06T11:47:08.665Z,18.59
2022-10-06T11:49:50.606Z,18.56
2022-10-06T11:52:21.299Z,18.60
2022-10-06T11:54:55.353Z,18.57
2022-10-06T11:57:30.580Z,18.53
2022-10-06T12:00:07.075Z,18.45
2022-10-06T12:02:39.042Z,18.45
2022-10-06T12:08:02.451Z,18.42
2022-10-06T12:10:33.992Z,18.47
2022-10-06T12:14:21.927Z,18.50
2022-10-06T12:17:08.379Z,18.49
2022-10-06T12:20:10.498Z,18.47
2022-10-06T12:22:43.787Z,18.45
2022-10-06T12:25:20.988Z,18.42
2022-10-06T12:28:24.465Z,18.42
2022-10-06T12:31:24.973Z,18.45
2022-10-06T12:33:55.188Z,18.49
2022-10-06T12:36:26.881Z,18.53
2022-10-06T12:39:08.959Z,18.56
2022-10-06T12:41:58.549Z,18.60
2022-10-06T12:44:54.748Z,18.63
2022-10-06T12:47:36.259Z,18.71
2022-10-06T12:50:27.944Z,18.88
2022-10-06T12:53:09.906Z,19.03
2022-10-06T12:55:52.167Z,19.12
2022-10-06T12:58:33.573Z,19.24
2022-10-06T13:01:06.871Z,19.35
2022-10-06T13:03:39.246Z,19.42
2022-10-06T13:06:10.617Z,19.49
2022-10-06T13:08:41.339Z,19.54
2022-10-06T13:11:14.328Z,19.65
2022-10-06T13:14:02.521Z,19.82
2022-10-06T13:16:41.902Z,19.97
2022-10-06T13:19:28.672Z,20.10
2022-10-06T13:22:03.102Z,20.12
2022-10-06T13:24:33.529Z,20.05
2022-10-06T13:27:04.237Z,19.86
2022-10-06T13:29:34.254Z,19.63
2022-10-06T13:32:04.084Z,19.58
2022-10-06T13:34:44.261Z,19.73
2022-10-06T13:37:17.756Z,19.94
2022-10-06T13:39:49.264Z,20.18
2022-10-06T13:42:24.520Z,20.27
2022-10-06T13:45:05.096Z,20.20
2022-10-06T13:47:35.494Z,20.07
2022-10-06T13:50:19.468Z,19.97
2022-10-06T13:52:51.943Z,19.96
2022-10-06T13:55:30.102Z,20.07
2022-10-06T13:58:04.874Z,20.23
2022-10-06T14:01:10.914Z,20.33
2022-10-06T14:03:41.623Z,20.49
2022-10-06T14:06:22.979Z,20.61
2022-10-06T14:08:58.490Z,20.58
2022-10-06T14:11:33.195Z,20.59
2022-10-06T14:14:06.694Z,20.57
2022-10-06T14:16:36.701Z,20.52
2022-10-06T14:19:07.795Z,20.49
2022-10-06T14:21:46.095Z,20.43
2022-10-06T14:24:20.586Z,20.49
2022-10-06T14:26:51.877Z,20.52
2022-10-06T14:29:23.566Z,20.59
2022-10-06T14:31:53.983Z,20.54
2022-10-06T14:34:24.670Z,20.43
2022-10-06T14:36:56.208Z,20.28
2022-10-06T14:39:26.440Z,20.20
2022-10-06T14:41:56.549Z,20.26
2022-10-06T14:44:26.653Z,20.18
2022-10-06T14:46:56.475Z,20.06
2022-10-06T14:49:27.190Z,20.01
2022-10-06T14:51:57.892Z,20.28
2022-10-06T14:54:28.761Z,20.71
2022-10-06T14:56:58.565Z,21.30
2022-10-06T14:59:28.901Z,21.43
2022-10-06T15:01:58.908Z,21.57
2022-10-06T15:04:29.362Z,21.51
2022-10-06T15:07:17.973Z,21.58
2022-10-06T15:09:47.991Z,21.88
2022-10-06T15:12:18.996Z,22.39
2022-10-06T15:14:48.930Z,22.29
2022-10-06T15:17:19.068Z,22.49
2022-10-06T15:19:48.905Z,22.55
2022-10-06T15:22:19.738Z,22.51
2022-10-06T15:24:51.558Z,22.57
2022-10-06T15:30:14.687Z,23.18
2022-10-06T15:32:44.569Z,23.57
2022-10-06T15:35:14.876Z,24.21
2022-10-06T15:37:44.931Z,24.33
2022-10-06T15:40:14.786Z,24.00
2022-10-06T15:42:44.943Z,23.25
2022-10-06T15:45:14.781Z,22.82
2022-10-06T15:47:45.051Z,22.57
2022-10-06T15:50:18.711Z,22.46
2022-10-06T15:52:49.959Z,22.52
2022-10-06T15:55:20.073Z,23.06
2022-10-06T15:57:49.863Z,24.16
2022-10-06T16:00:19.740Z,25.12
2022-10-06T16:02:50.098Z,25.91
2022-10-06T16:05:45.575Z,26.63
2022-10-06T16:08:16.121Z,27.62
2022-10-06T16:10:51.610Z,28.66
2022-10-06T16:13:22.095Z,29.01
2022-10-06T16:15:56.656Z,29.28
2022-10-06T16:18:27.311Z,28.71
2022-10-06T16:20:58.045Z,29.11
2022-10-06T16:23:28.429Z,30.55
2022-10-06T16:25:58.439Z,30.89
2022-10-06T16:28:28.837Z,30.12
2022-10-06T16:30:58.908Z,30.71
2022-10-06T16:33:29.346Z,29.36
2022-10-06T16:36:00.505Z,28.91
2022-10-06T16:38:31.034Z,30.35
2022-10-06T16:41:03.107Z,31.15
2022-10-06T16:43:37.311Z,30.95
2022-10-06T16:46:10.432Z,30.34
2022-10-06T16:48:43.528Z,30.17
2022-10-06T16:51:21.804Z,29.52
2022-10-06T16:53:52.596Z,29.53
2022-10-06T16:56:27.859Z,29.89
2022-10-06T16:59:01.347Z,30.10
2022-10-06T17:01:35.800Z,29.90
2022-10-06T17:04:07.900Z,29.62
2022-10-06T17:06:46.740Z,28.39
2022-10-06T17:09:19.344Z,28.26
2022-10-06T17:11:55.419Z,28.67
2022-10-06T17:14:26.267Z,28.52
2022-10-06T17:16:57.494Z,27.16
2022-10-06T17:19:30.333Z,26.78
2022-10-06T17:22:01.027Z,26.66
2022-10-06T17:24:32.425Z,27.13
2022-10-06T17:27:02.551Z,27.96
2022-10-06T17:29:32.397Z,27.86
2022-10-06T17:32:03.225Z,27.23
2022-10-06T17:34:34.403Z,27.86
2022-10-06T17:37:04.817Z,27.47
2022-10-06T17:39:34.857Z,26.59
2022-10-06T17:42:04.705Z,26.29
2022-10-06T17:44:35.038Z,26.20
2022-10-06T17:47:04.886Z,26.38
2022-10-06T17:49:36.090Z,26.92
2022-10-06T17:52:07.028Z,27.78
2022-10-06T17:54:37.173Z,27.92
2022-10-06T17:57:07.439Z,27.17
2022-10-06T17:59:37.760Z,26.18
2022-10-06T18:02:08.313Z,26.01
2022-10-06T18:04:38.540Z,26.20
2022-10-06T18:07:09.629Z,26.24
2022-10-06T18:09:39.927Z,26.05
2022-10-06T18:12:11.582Z,25.88
2022-10-06T18:14:41.952Z,26.38
2022-10-06T18:17:11.752Z,26.13
2022-10-06T18:19:41.530Z,25.91
2022-10-06T18:22:12.723Z,25.43
2022-10-06T18:24:43.181Z,25.09
2022-10-06T18:27:14.987Z,24.77
2022-10-06T18:29:44.887Z,24.50
2022-10-06T18:37:56.626Z,24.36
2022-10-06T18:40:26.942Z,24.47
2022-10-06T18:42:56.642Z,24.26
2022-10-06T18:45:44.809Z,24.16
2022-10-06T18:48:33.634Z,24.30
2022-10-06T18:51:04.081Z,24.37
2022-10-06T18:53:38.421Z,24.26
2022-10-06T18:56:08.527Z,24.12
2022-10-06T18:58:45.502Z,24.26
2022-10-06T19:01:16.136Z,24.37
2022-10-06T19:03:46.522Z,24.53
2022-10-06T19:06:16.553Z,24.54
2022-10-06T19:08:47.199Z,24.39
2022-10-06T19:11:35.717Z,24.36
2022-10-06T19:14:06.699Z,24.33
2022-10-06T19:16:37.313Z,24.37
2022-10-06T19:19:11.754Z,24.26
2022-10-06T19:22:00.735Z,24.23
2022-10-06T19:24:37.767Z,24.13
2022-10-06T19:27:14.592Z,24.05
2022-10-06T19:29:48.027Z,24.00
2022-10-06T19:32:22.648Z,23.95
2022-10-06T19:34:53.403Z,23.93
2022-10-06T19:37:23.611Z,23.96
2022-10-06T19:39:53.887Z,23.99
2022-10-06T19:42:42.966Z,23.95
2022-10-06T19:45:15.065Z,23.86
2022-10-06T19:47:46.721Z,23.78
2022-10-06T19:50:18.563Z,23.93
2022-10-06T19:52:50.082Z,23.99
2022-10-06T19:55:23.994Z,23.96
2022-10-06T19:57:54.202Z,23.96
2022-10-06T20:00:24.564Z,23.79
2022-10-06T20:02:56.035Z,23.73
2022-10-06T20:05:27.786Z,23.71
2022-10-06T20:07:57.602Z,23.66
2022-10-06T20:10:27.409Z,23.57
2022-10-06T20:12:57.683Z,23.50
2022-10-06T20:15:27.491Z,23.41
2022-10-06T20:17:57.722Z,23.28
2022-10-06T20:20:27.560Z,23.24
2022-10-06T20:22:57.581Z,23.18
2022-10-06T20:25:27.618Z,23.17
2022-10-06T20:27:57.995Z,23.08
2022-10-06T20:30:28.026Z,22.99
2022-10-06T20:32:58.618Z,22.92
2022-10-06T20:35:28.421Z,22.84
2022-10-06T20:37:59.375Z,22.80
2022-10-06T20:40:44.333Z,22.73
2022-10-06T20:43:15.149Z,22.70
2022-10-06T20:45:45.217Z,22.66
2022-10-06T20:48:15.585Z,22.62
2022-10-06T20:50:45.841Z,22.52
2022-10-06T20:53:16.075Z,22.43
2022-10-06T20:55:53.272Z,22.31
2022-10-06T20:58:23.524Z,22.19
2022-10-06T21:00:53.530Z,22.06
2022-10-06T21:03:23.835Z,22.00
2022-10-06T21:05:54.083Z,21.93
2022-10-06T21:08:24.799Z,21.88
2022-10-06T21:11:01.848Z,21.78
2022-10-06T21:13:33.710Z,21.73
2022-10-06T21:16:04.901Z,21.61
2022-10-06T21:18:36.115Z,21.54
2022-10-06T21:21:08.889Z,21.49
2022-10-06T21:23:41.533Z,21.47
2022-10-06T21:26:15.378Z,21.39
2022-10-06T21:28:47.060Z,21.33
2022-10-06T21:31:19.314Z,21.25
2022-10-06T21:33:51.607Z,21.25
2022-10-06T21:36:24.515Z,21.20
2022-10-06T21:38:59.810Z,21.22
2022-10-06T21:41:37.242Z,21.22
2022-10-06T21:44:10.890Z,21.16
2022-10-06T21:46:52.323Z,21.18
2022-10-06T21:49:27.495Z,21.20
2022-10-06T21:52:04.507Z,21.10
2022-10-06T21:54:34.784Z,21.09
2022-10-06T21:57:05.064Z,21.06
2022-10-06T21:59:35.187Z,21.03
2022-10-06T22:02:07.992Z,21.00
2022-10-06T22:04:38.834Z,21.00
2022-10-06T22:07:08.647Z,20.98
2022-10-06T22:09:38.885Z,20.96
2022-10-06T22:12:08.897Z,20.95
2022-10-06T22:14:39.061Z,20.96
2022-10-06T22:17:08.855Z,20.99
2022-10-06T22:19:38.628Z,20.94
2022-10-06T22:22:08.457Z,20.91
2022-10-06T22:24:38.551Z,20.94
2022-10-06T22:27:08.352Z,20.88
2022-10-06T22:29:39.580Z,20.86
2022-10-06T22:32:10.023Z,20.88
2022-10-06T22:34:40.011Z,20.89
2022-10-06T22:37:09.946Z,20.85
2022-10-06T22:39:39.697Z,20.89
2022-10-06T22:42:09.539Z,20.85
2022-10-06T22:44:39.384Z,20.82
2022-10-06T22:47:09.554Z,20.75
2022-10-06T22:49:39.399Z,20.71
2022-10-06T22:52:09.418Z,20.68
2022-10-06T22:54:39.542Z,20.67
2022-10-06T22:57:09.597Z,20.61
2022-10-06T22:59:41.385Z,20.64
2022-10-06T23:02:11.646Z,20.67
2022-10-06T23:04:41.864Z,20.68
2022-10-06T23:07:12.878Z,20.72
2022-10-06T23:09:43.037Z,20.76
2022-10-06T23:12:13.004Z,20.75
2022-10-06T23:14:43.070Z,20.76
2022-10-06T23:17:13.270Z,20.75
2022-10-06T23:19:43.980Z,20.75
2022-10-06T23:22:14.032Z,20.65
2022-10-06T23:24:44.050Z,20.59
2022-10-06T23:27:15.512Z,20.59
2022-10-06T23:29:46.218Z,20.58
2022-10-06T23:32:16.257Z,20.57
2022-10-06T23:34:46.383Z,20.52
2022-10-06T23:37:16.731Z,20.48
2022-10-06T23:39:46.701Z,20.45
2022-10-06T23:42:17.029Z,20.40
2022-10-06T23:44:47.949Z,20.30
2022-10-06T23:47:18.626Z,20.09
2022-10-06T23:49:48.478Z,19.96
2022-10-06T23:52:18.364Z,19.92
2022-10-06T23:54:48.971Z,19.87
2022-10-06T23:57:19.932Z,19.89
2022-10-06T23:59:50.001Z,19.85
